sensor_id;sensor_type;location;lat;lon;timestamp;P1;durP1;ratioP1;P2;durP2;ratioP2
19946;SDS011;10135;50.702;7.276;2022-09-13T05:31:19;3.17;;;1.92;;
19946;SDS011;10135;50.702;7.276;2022-09-13T05:33:27;2.40;;;2.30;;
19946;SDS011;10135;50.702;7.276;2022-09-13T05:35:30;2.47;;;2.28;;
19946;SDS011;10135;50.702;7.276;2022-09-13T05:37:31;2.55;;;2.15;;
19946;SDS011;10135;50.702;7.276;2022-09-13T05:39:32;2.30;;;2.20;;
19946;SDS011;10135;50.702;7.276;2022-09-13T05:41:33;9.25;;;2.20;;
19946;SDS011;10135;50.702;7.276;2022-09-13T05:43:34;2.30;;;2.20;;
19946;SDS011;10135;50.702;7.276;2022-09-13T05:45:36;2.45;;;1.98;;
19946;SDS011;10135;50.702;7.276;2022-09-13T05:47:36;2.58;;;2.13;;
19946;SDS011;10135;50.702;7.276;2022-09-13T05:49:37;2.22;;;2.13;;
19946;SDS011;10135;50.702;7.276;2022-09-13T05:51:38;2.03;;;1.92;;
19946;SDS011;10135;50.702;7.276;2022-09-13T05:53:40;2.42;;;2.33;;
19946;SDS011;10135;50.702;7.276;2022-09-13T05:55:43;2.10;;;2.00;;
19946;SDS011;10135;50.702;7.276;2022-09-13T05:57:43;2.58;;;2.00;;
19946;SDS011;10135;50.702;7.276;2022-09-13T05:59:44;2.22;;;2.08;;
19946;SDS011;10135;50.702;7.276;2022-09-13T06:01:46;2.40;;;2.20;;
19946;SDS011;10135;50.702;7.276;2022-09-13T06:03:51;2.22;;;2.13;;
19946;SDS011;10135;50.702;7.276;2022-09-13T06:05:55;2.20;;;2.10;;
19946;SDS011;10135;50.702;7.276;2022-09-13T06:07:56;2.30;;;2.20;;
19946;SDS011;10135;50.702;7.276;2022-09-13T06:09:57;1.98;;;1.95;;
19946;SDS011;10135;50.702;7.276;2022-09-13T06:11:58;2.17;;;2.08;;
19946;SDS011;10135;50.702;7.276;2022-09-13T06:13:58;2.40;;;2.20;;
19946;SDS011;10135;50.702;7.276;2022-09-13T06:15:59;2.50;;;2.30;;
19946;SDS011;10135;50.702;7.276;2022-09-13T06:18:02;2.00;;;2.00;;
19946;SDS011;10135;50.702;7.276;2022-09-13T06:20:03;2.33;;;2.20;;
19946;SDS011;10135;50.702;7.276;2022-09-13T06:22:04;2.30;;;2.20;;
19946;SDS011;10135;50.702;7.276;2022-09-13T06:24:05;2.03;;;1.88;;
19946;SDS011;10135;50.702;7.276;2022-09-13T06:26:10;4.95;;;2.17;;
19946;SDS011;10135;50.702;7.276;2022-09-13T06:28:13;1.80;;;1.80;;
19946;SDS011;10135;50.702;7.276;2022-09-13T06:30:13;2.10;;;2.00;;
19946;SDS011;10135;50.702;7.276;2022-09-13T06:32:14;2.40;;;2.00;;
19946;SDS011;10135;50.702;7.276;2022-09-13T06:34:15;2.30;;;2.20;;
19946;SDS011;10135;50.702;7.276;2022-09-13T06:36:17;2.20;;;2.00;;
19946;SDS011;10135;50.702;7.276;2022-09-13T06:38:18;2.30;;;1.75;;
19946;SDS011;10135;50.702;7.276;2022-09-13T06:40:19;2.10;;;1.90;;
19946;SDS011;10135;50.702;7.276;2022-09-13T06:42:21;2.00;;;1.98;;
19946;SDS011;10135;50.702;7.276;2022-09-13T06:44:22;2.05;;;1.95;;
19946;SDS011;10135;50.702;7.276;2022-09-13T06:46:23;2.40;;;1.88;;
19946;SDS011;10135;50.702;7.276;2022-09-13T06:48:29;1.77;;;1.70;;
19946;SDS011;10135;50.702;7.276;2022-09-13T06:50:31;3.90;;;2.05;;
19946;SDS011;10135;50.702;7.276;2022-09-13T06:52:32;1.92;;;1.83;;
19946;SDS011;10135;50.702;7.276;2022-09-13T06:54:33;2.67;;;1.70;;
19946;SDS011;10135;50.702;7.276;2022-09-13T06:56:34;2.22;;;2.13;;
19946;SDS011;10135;50.702;7.276;2022-09-13T06:58:37;2.53;;;1.88;;
19946;SDS011;10135;50.702;7.276;2022-09-13T07:00:40;1.83;;;1.73;;
19946;SDS011;10135;50.702;7.276;2022-09-13T07:02:40;3.83;;;1.80;;
19946;SDS011;10135;50.702;7.276;2022-09-13T07:04:41;2.28;;;1.90;;
19946;SDS011;10135;50.702;7.276;2022-09-13T07:06:43;4.28;;;2.13;;
19946;SDS011;10135;50.702;7.276;2022-09-13T07:08:47;1.90;;;1.80;;
19946;SDS011;10135;50.702;7.276;2022-09-13T07:10:49;2.22;;;2.10;;
19946;SDS011;10135;50.702;7.276;2022-09-13T07:12:50;2.17;;;2.00;;
19946;SDS011;10135;50.702;7.276;2022-09-13T07:14:51;1.77;;;1.77;;
19946;SDS011;10135;50.702;7.276;2022-09-13T07:16:52;3.35;;;1.75;;
19946;SDS011;10135;50.702;7.276;2022-09-13T07:18:55;2.10;;;1.70;;
19946;SDS011;10135;50.702;7.276;2022-09-13T07:21:08;2.40;;;2.00;;
19946;SDS011;10135;50.702;7.276;2022-09-13T07:23:10;2.40;;;2.20;;
19946;SDS011;10135;50.702;7.276;2022-09-13T07:25:11;1.85;;;1.75;;
19946;SDS011;10135;50.702;7.276;2022-09-13T07:27:12;3.00;;;2.00;;
19946;SDS011;10135;50.702;7.276;2022-09-13T07:29:15;1.88;;;1.88;;
19946;SDS011;10135;50.702;7.276;2022-09-13T07:31:19;1.85;;;1.60;;
19946;SDS011;10135;50.702;7.276;2022-09-13T07:33:23;1.90;;;1.80;;
19946;SDS011;10135;50.702;7.276;2022-09-13T07:35:25;1.80;;;1.80;;
19946;SDS011;10135;50.702;7.276;2022-09-13T07:37:26;2.78;;;2.35;;
19946;SDS011;10135;50.702;7.276;2022-09-13T07:39:26;4.03;;;2.30;;
19946;SDS011;10135;50.702;7.276;2022-09-13T07:41:28;2.08;;;1.98;;
19946;SDS011;10135;50.702;7.276;2022-09-13T07:43:29;2.55;;;2.28;;
19946;SDS011;10135;50.702;7.276;2022-09-13T07:45:30;2.45;;;2.15;;
19946;SDS011;10135;50.702;7.276;2022-09-13T07:47:31;2.10;;;2.00;;
19946;SDS011;10135;50.702;7.276;2022-09-13T07:49:32;2.10;;;2.00;;
19946;SDS011;10135;50.702;7.276;2022-09-13T07:51:34;3.97;;;1.90;;
19946;SDS011;10135;50.702;7.276;2022-09-13T07:53:39;2.33;;;1.70;;
19946;SDS011;10135;50.702;7.276;2022-09-13T07:55:41;1.70;;;1.70;;
19946;SDS011;10135;50.702;7.276;2022-09-13T07:57:42;3.50;;;1.80;;
19946;SDS011;10135;50.702;7.276;2022-09-13T07:59:43;1.50;;;1.50;;
19946;SDS011;10135;50.702;7.276;2022-09-13T08:01:52;4.45;;;1.83;;
19946;SDS011;10135;50.702;7.276;2022-09-13T08:03:59;2.13;;;1.73;;
19946;SDS011;10135;50.702;7.276;2022-09-13T08:06:04;1.70;;;1.60;;
19946;SDS011;10135;50.702;7.276;2022-09-13T08:08:06;4.95;;;1.70;;
19946;SDS011;10135;50.702;7.276;2022-09-13T08:10:07;1.73;;;1.60;;
19946;SDS011;10135;50.702;7.276;2022-09-13T08:12:08;1.60;;;1.50;;
19946;SDS011;10135;50.702;7.276;2022-09-13T08:14:09;2.88;;;1.70;;
19946;SDS011;10135;50.702;7.276;2022-09-13T08:16:13;2.58;;;1.85;;
19946;SDS011;10135;50.702;7.276;2022-09-13T08:18:15;2.92;;;1.60;;
19946;SDS011;10135;50.702;7.276;2022-09-13T08:20:19;1.40;;;1.40;;
19946;SDS011;10135;50.702;7.276;2022-09-13T08:22:21;1.52;;;1.42;;
19946;SDS011;10135;50.702;7.276;2022-09-13T08:24:22;1.60;;;1.50;;
19946;SDS011;10135;50.702;7.276;2022-09-13T08:26:23;2.58;;;1.48;;
19946;SDS011;10135;50.702;7.276;2022-09-13T08:28:24;2.20;;;1.58;;
19946;SDS011;10135;50.702;7.276;2022-09-13T08:30:24;1.40;;;1.30;;
19946;SDS011;10135;50.702;7.276;2022-09-13T08:32:31;2.22;;;1.67;;
19946;SDS011;10135;50.702;7.276;2022-09-13T08:34:32;1.63;;;1.50;;
19946;SDS011;10135;50.702;7.276;2022-09-13T08:36:33;1.30;;;1.20;;
19946;SDS011;10135;50.702;7.276;2022-09-13T08:38:34;1.80;;;1.70;;
19946;SDS011;10135;50.702;7.276;2022-09-13T08:40:39;1.70;;;1.60;;
19946;SDS011;10135;50.702;7.276;2022-09-13T08:44:53;1.20;;;1.20;;
19946;SDS011;10135;50.702;7.276;2022-09-13T08:49:12;1.25;;;1.25;;
19946;SDS011;10135;50.702;7.276;2022-09-13T08:51:30;1.48;;;1.48;;
19946;SDS011;10135;50.702;7.276;2022-09-13T08:53:42;1.42;;;1.40;;
19946;SDS011;10135;50.702;7.276;2022-09-13T08:56:07;1.52;;;1.30;;
19946;SDS011;10135;50.702;7.276;2022-09-13T09:01:12;1.10;;;1.10;;
19946;SDS011;10135;50.702;7.276;2022-09-13T09:03:53;1.20;;;1.20;;
19946;SDS011;10135;50.702;7.276;2022-09-13T09:06:15;1.35;;;1.25;;
19946;SDS011;10135;50.702;7.276;2022-09-13T09:09:03;1.30;;;1.20;;
19946;SDS011;10135;50.702;7.276;2022-09-13T09:10:51;1.50;;;1.40;;
19946;SDS011;10135;50.702;7.276;2022-09-13T09:13:01;1.20;;;1.20;;
19946;SDS011;10135;50.702;7.276;2022-09-13T09:15:15;1.42;;;1.30;;
19946;SDS011;10135;50.702;7.276;2022-09-13T09:17:21;1.40;;;1.30;;
19946;SDS011;10135;50.702;7.276;2022-09-13T09:21:41;1.80;;;1.38;;
19946;SDS011;10135;50.702;7.276;2022-09-13T09:23:49;1.40;;;1.27;;
19946;SDS011;10135;50.702;7.276;2022-09-13T09:28:20;4.32;;;1.48;;
19946;SDS011;10135;50.702;7.276;2022-09-13T09:30:21;1.15;;;1.15;;
19946;SDS011;10135;50.702;7.276;2022-09-13T09:37:35;1.20;;;1.20;;
19946;SDS011;10135;50.702;7.276;2022-09-13T09:39:40;1.98;;;1.30;;
19946;SDS011;10135;50.702;7.276;2022-09-13T09:41:44;1.10;;;1.10;;
19946;SDS011;10135;50.702;7.276;2022-09-13T09:46:16;1.10;;;1.10;;
19946;SDS011;10135;50.702;7.276;2022-09-13T09:48:26;2.92;;;1.42;;
19946;SDS011;10135;50.702;7.276;2022-09-13T09:50:37;1.30;;;1.30;;
19946;SDS011;10135;50.702;7.276;2022-09-13T09:53:00;1.33;;;1.23;;
19946;SDS011;10135;50.702;7.276;2022-09-13T10:00:09;1.30;;;1.30;;
19946;SDS011;10135;50.702;7.276;2022-09-13T10:02:18;1.10;;;1.10;;
19946;SDS011;10135;50.702;7.276;2022-09-13T10:04:20;4.07;;;1.20;;
19946;SDS011;10135;50.702;7.276;2022-09-13T10:06:23;1.13;;;1.13;;
19946;SDS011;10135;50.702;7.276;2022-09-13T10:08:27;1.10;;;1.10;;
19946;SDS011;10135;50.702;7.276;2022-09-13T10:12:42;1.73;;;1.17;;
19946;SDS011;10135;50.702;7.276;2022-09-13T10:14:49;1.48;;;1.38;;
19946;SDS011;10135;50.702;7.276;2022-09-13T10:19:23;1.27;;;1.20;;
19946;SDS011;10135;50.702;7.276;2022-09-13T10:21:25;1.80;;;1.23;;
19946;SDS011;10135;50.702;7.276;2022-09-13T10:23:26;1.10;;;1.10;;
19946;SDS011;10135;50.702;7.276;2022-09-13T10:25:27;1.35;;;1.25;;
19946;SDS011;10135;50.702;7.276;2022-09-13T10:27:31;1.40;;;1.27;;
19946;SDS011;10135;50.702;7.276;2022-09-13T10:29:36;1.35;;;1.30;;
19946;SDS011;10135;50.702;7.276;2022-09-13T10:31:41;1.20;;;1.20;;
19946;SDS011;10135;50.702;7.276;2022-09-13T10:35:51;1.45;;;1.35;;
19946;SDS011;10135;50.702;7.276;2022-09-13T10:37:56;2.28;;;1.50;;
19946;SDS011;10135;50.702;7.276;2022-09-13T10:40:04;1.00;;;1.00;;
19946;SDS011;10135;50.702;7.276;2022-09-13T10:42:19;1.20;;;1.20;;
19946;SDS011;10135;50.702;7.276;2022-09-13T10:46:54;4.28;;;1.30;;
19946;SDS011;10135;50.702;7.276;2022-09-13T10:48:59;1.20;;;1.17;;
19946;SDS011;10135;50.702;7.276;2022-09-13T10:51:01;2.15;;;1.35;;
19946;SDS011;10135;50.702;7.276;2022-09-13T10:53:25;1.27;;;1.15;;
19946;SDS011;10135;50.702;7.276;2022-09-13T10:55:38;1.10;;;1.10;;
19946;SDS011;10135;50.702;7.276;2022-09-13T10:57:43;1.30;;;1.30;;
19946;SDS011;10135;50.702;7.276;2022-09-13T10:59:52;2.15;;;1.33;;
19946;SDS011;10135;50.702;7.276;2022-09-13T11:04:31;1.50;;;1.40;;
19946;SDS011;10135;50.702;7.276;2022-09-13T11:09:52;7.30;;;1.23;;
19946;SDS011;10135;50.702;7.276;2022-09-13T11:12:18;1.92;;;1.30;;
19946;SDS011;10135;50.702;7.276;2022-09-13T11:17:23;1.15;;;1.15;;
19946;SDS011;10135;50.702;7.276;2022-09-13T11:32:25;1.67;;;1.55;;
19946;SDS011;10135;50.702;7.276;2022-09-13T11:37:34;1.50;;;1.40;;
19946;SDS011;10135;50.702;7.276;2022-09-13T11:39:48;1.55;;;1.50;;
19946;SDS011;10135;50.702;7.276;2022-09-13T11:52:29;4.45;;;1.30;;
19946;SDS011;10135;50.702;7.276;2022-09-13T11:57:05;1.50;;;1.40;;
19946;SDS011;10135;50.702;7.276;2022-09-13T12:01:38;1.40;;;1.30;;
19946;SDS011;10135;50.702;7.276;2022-09-13T12:06:36;2.90;;;1.35;;
19946;SDS011;10135;50.702;7.276;2022-09-13T12:09:04;1.13;;;1.13;;
19946;SDS011;10135;50.702;7.276;2022-09-13T12:11:18;3.13;;;1.38;;
19946;SDS011;10135;50.702;7.276;2022-09-13T12:13:28;1.67;;;1.30;;
19946;SDS011;10135;50.702;7.276;2022-09-13T12:15:35;1.33;;;1.33;;
19946;SDS011;10135;50.702;7.276;2022-09-13T12:17:41;1.38;;;1.27;;
19946;SDS011;10135;50.702;7.276;2022-09-13T12:19:46;1.20;;;1.20;;
19946;SDS011;10135;50.702;7.276;2022-09-13T12:21:54;1.38;;;1.38;;
19946;SDS011;10135;50.702;7.276;2022-09-13T12:26:19;1.50;;;1.40;;
19946;SDS011;10135;50.702;7.276;2022-09-13T12:28:33;1.33;;;1.23;;
19946;SDS011;10135;50.702;7.276;2022-09-13T12:30:58;1.58;;;1.48;;
19946;SDS011;10135;50.702;7.276;2022-09-13T12:33:18;1.10;;;1.10;;
19946;SDS011;10135;50.702;7.276;2022-09-13T12:37:51;1.63;;;1.52;;
19946;SDS011;10135;50.702;7.276;2022-09-13T12:42:47;2.47;;;1.30;;
19946;SDS011;10135;50.702;7.276;2022-09-13T12:45:33;1.30;;;1.25;;
19946;SDS011;10135;50.702;7.276;2022-09-13T13:01:01;1.48;;;1.38;;
19946;SDS011;10135;50.702;7.276;2022-09-13T13:07:35;1.30;;;1.30;;
19946;SDS011;10135;50.702;7.276;2022-09-13T13:09:41;1.30;;;1.30;;
19946;SDS011;10135;50.702;7.276;2022-09-13T13:11:47;1.15;;;1.15;;
19946;SDS011;10135;50.702;7.276;2022-09-13T13:13:54;1.42;;;1.20;;
19946;SDS011;10135;50.702;7.276;2022-09-13T13:24:44;1.52;;;1.40;;
19946;SDS011;10135;50.702;7.276;2022-09-13T13:26:48;1.45;;;1.40;;
19946;SDS011;10135;50.702;7.276;2022-09-13T13:29:13;1.38;;;1.27;;
19946;SDS011;10135;50.702;7.276;2022-09-13T13:33:28;2.38;;;1.27;;
19946;SDS011;10135;50.702;7.276;2022-09-13T13:35:46;1.40;;;1.30;;
19946;SDS011;10135;50.702;7.276;2022-09-13T13:37:48;1.38;;;1.30;;
19946;SDS011;10135;50.702;7.276;2022-09-13T13:40:11;1.30;;;1.30;;
19946;SDS011;10135;50.702;7.276;2022-09-13T13:42:24;4.63;;;1.45;;
19946;SDS011;10135;50.702;7.276;2022-09-13T13:46:31;2.50;;;1.23;;
19946;SDS011;10135;50.702;7.276;2022-09-13T13:48:33;1.30;;;1.23;;
19946;SDS011;10135;50.702;7.276;2022-09-13T13:53:18;1.20;;;1.20;;
19946;SDS011;10135;50.702;7.276;2022-09-13T13:55:41;1.45;;;1.35;;
19946;SDS011;10135;50.702;7.276;2022-09-13T14:00:16;2.40;;;1.27;;
19946;SDS011;10135;50.702;7.276;2022-09-13T14:02:27;1.30;;;1.30;;
19946;SDS011;10135;50.702;7.276;2022-09-13T14:07:01;1.40;;;1.30;;
19946;SDS011;10135;50.702;7.276;2022-09-13T14:09:50;1.85;;;1.15;;
19946;SDS011;10135;50.702;7.276;2022-09-13T14:19:26;1.45;;;1.38;;
19946;SDS011;10135;50.702;7.276;2022-09-13T14:21:33;1.67;;;1.20;;
19946;SDS011;10135;50.702;7.276;2022-09-13T14:23:34;2.70;;;1.38;;
19946;SDS011;10135;50.702;7.276;2022-09-13T14:25:35;1.83;;;1.10;;
19946;SDS011;10135;50.702;7.276;2022-09-13T14:27:36;2.13;;;1.33;;
19946;SDS011;10135;50.702;7.276;2022-09-13T14:29:41;1.95;;;1.00;;
19946;SDS011;10135;50.702;7.276;2022-09-13T14:31:46;1.70;;;1.15;;
19946;SDS011;10135;50.702;7.276;2022-09-13T14:33:49;1.73;;;1.20;;
19946;SDS011;10135;50.702;7.276;2022-09-13T14:35:55;2.30;;;1.15;;
19946;SDS011;10135;50.702;7.276;2022-09-13T14:38:19;1.75;;;1.40;;
19946;SDS011;10135;50.702;7.276;2022-09-13T14:40:24;1.02;;;1.02;;
19946;SDS011;10135;50.702;7.276;2022-09-13T14:42:36;1.85;;;1.20;;
19946;SDS011;10135;50.702;7.276;2022-09-13T14:44:43;1.33;;;1.15;;
19946;SDS011;10135;50.702;7.276;2022-09-13T14:46:47;1.58;;;1.00;;
19946;SDS011;10135;50.702;7.276;2022-09-13T14:49:00;1.67;;;1.10;;
19946;SDS011;10135;50.702;7.276;2022-09-13T14:51:24;1.30;;;1.30;;
19946;SDS011;10135;50.702;7.276;2022-09-13T14:53:31;1.27;;;1.25;;
19946;SDS011;10135;50.702;7.276;2022-09-13T14:55:35;1.98;;;1.40;;
19946;SDS011;10135;50.702;7.276;2022-09-13T14:57:44;1.27;;;1.17;;
19946;SDS011;10135;50.702;7.276;2022-09-13T14:59:51;1.10;;;1.02;;
19946;SDS011;10135;50.702;7.276;2022-09-13T15:02:15;1.23;;;1.20;;
19946;SDS011;10135;50.702;7.276;2022-09-13T15:04:20;1.40;;;1.30;;
19946;SDS011;10135;50.702;7.276;2022-09-13T15:06:26;2.10;;;1.50;;
19946;SDS011;10135;50.702;7.276;2022-09-13T15:10:32;1.08;;;1.08;;
19946;SDS011;10135;50.702;7.276;2022-09-13T15:12:53;1.50;;;1.40;;
19946;SDS011;10135;50.702;7.276;2022-09-13T15:17:49;1.13;;;1.13;;
19946;SDS011;10135;50.702;7.276;2022-09-13T15:20:03;1.40;;;1.30;;
19946;SDS011;10135;50.702;7.276;2022-09-13T15:22:18;1.77;;;1.67;;
19946;SDS011;10135;50.702;7.276;2022-09-13T15:24:32;3.00;;;1.40;;
19946;SDS011;10135;50.702;7.276;2022-09-13T15:26:33;1.70;;;1.42;;
19946;SDS011;10135;50.702;7.276;2022-09-13T15:30:43;1.70;;;1.60;;
19946;SDS011;10135;50.702;7.276;2022-09-13T15:32:44;3.22;;;1.50;;
19946;SDS011;10135;50.702;7.276;2022-09-13T15:34:45;3.13;;;1.60;;
19946;SDS011;10135;50.702;7.276;2022-09-13T15:36:52;1.52;;;1.40;;
19946;SDS011;10135;50.702;7.276;2022-09-13T15:39:13;5.85;;;1.70;;
19946;SDS011;10135;50.702;7.276;2022-09-13T15:41:20;2.20;;;1.50;;
19946;SDS011;10135;50.702;7.276;2022-09-13T15:43:21;1.60;;;1.50;;
19946;SDS011;10135;50.702;7.276;2022-09-13T15:45:22;3.38;;;1.50;;
19946;SDS011;10135;50.702;7.276;2022-09-13T15:47:22;1.50;;;1.50;;
19946;SDS011;10135;50.702;7.276;2022-09-13T15:49:24;1.95;;;1.50;;
19946;SDS011;10135;50.702;7.276;2022-09-13T15:51:27;1.73;;;1.55;;
19946;SDS011;10135;50.702;7.276;2022-09-13T15:53:28;2.10;;;1.42;;
19946;SDS011;10135;50.702;7.276;2022-09-13T15:55:28;1.23;;;1.23;;
19946;SDS011;10135;50.702;7.276;2022-09-13T15:57:30;4.22;;;1.58;;
19946;SDS011;10135;50.702;7.276;2022-09-13T15:59:31;3.17;;;1.58;;
19946;SDS011;10135;50.702;7.276;2022-09-13T16:01:31;2.78;;;1.55;;
19946;SDS011;10135;50.702;7.276;2022-09-13T16:03:32;1.58;;;1.48;;
19946;SDS011;10135;50.702;7.276;2022-09-13T16:05:33;1.35;;;1.35;;
19946;SDS011;10135;50.702;7.276;2022-09-13T16:07:35;1.40;;;1.40;;
19946;SDS011;10135;50.702;7.276;2022-09-13T16:09:36;1.30;;;1.30;;
19946;SDS011;10135;50.702;7.276;2022-09-13T16:11:38;1.95;;;1.27;;
19946;SDS011;10135;50.702;7.276;2022-09-13T16:13:39;3.42;;;1.40;;
19946;SDS011;10135;50.702;7.276;2022-09-13T16:15:40;1.30;;;1.30;;
19946;SDS011;10135;50.702;7.276;2022-09-13T16:17:41;1.40;;;1.30;;
19946;SDS011;10135;50.702;7.276;2022-09-13T16:19:41;1.35;;;1.25;;
19946;SDS011;10135;50.702;7.276;2022-09-13T16:21:42;1.25;;;1.25;;
19946;SDS011;10135;50.702;7.276;2022-09-13T16:23:43;1.42;;;1.30;;
19946;SDS011;10135;50.702;7.276;2022-09-13T16:25:44;1.70;;;1.60;;
19946;SDS011;10135;50.702;7.276;2022-09-13T16:27:46;1.30;;;1.25;;
19946;SDS011;10135;50.702;7.276;2022-09-13T16:29:47;1.40;;;1.30;;
19946;SDS011;10135;50.702;7.276;2022-09-13T16:31:48;1.10;;;1.10;;
19946;SDS011;10135;50.702;7.276;2022-09-13T16:33:48;1.58;;;1.13;;
19946;SDS011;10135;50.702;7.276;2022-09-13T16:35:49;1.48;;;1.38;;
19946;SDS011;10135;50.702;7.276;2022-09-13T16:37:49;1.30;;;1.23;;
19946;SDS011;10135;50.702;7.276;2022-09-13T16:39:54;1.55;;;1.13;;
19946;SDS011;10135;50.702;7.276;2022-09-13T16:41:57;1.30;;;1.20;;
19946;SDS011;10135;50.702;7.276;2022-09-13T16:43:57;1.42;;;1.25;;
19946;SDS011;10135;50.702;7.276;2022-09-13T16:45:58;1.20;;;1.10;;
19946;SDS011;10135;50.702;7.276;2022-09-13T16:48:06;1.27;;;1.17;;
19946;SDS011;10135;50.702;7.276;2022-09-13T16:50:08;1.38;;;1.27;;
19946;SDS011;10135;50.702;7.276;2022-09-13T16:52:09;1.48;;;1.38;;
19946;SDS011;10135;50.702;7.276;2022-09-13T16:54:10;2.00;;;1.20;;
19946;SDS011;10135;50.702;7.276;2022-09-13T16:56:12;1.58;;;1.30;;
19946;SDS011;10135;50.702;7.276;2022-09-13T16:58:15;2.42;;;1.50;;
19946;SDS011;10135;50.702;7.276;2022-09-13T17:00:16;2.05;;;1.30;;
19946;SDS011;10135;50.702;7.276;2022-09-13T17:02:19;1.30;;;1.30;;
19946;SDS011;10135;50.702;7.276;2022-09-13T17:04:20;1.33;;;1.30;;
19946;SDS011;10135;50.702;7.276;2022-09-13T17:06:21;1.42;;;1.20;;
19946;SDS011;10135;50.702;7.276;2022-09-13T17:08:23;1.30;;;1.30;;
19946;SDS011;10135;50.702;7.276;2022-09-13T17:10:24;2.25;;;1.42;;
19946;SDS011;10135;50.702;7.276;2022-09-13T17:12:25;1.88;;;1.40;;
19946;SDS011;10135;50.702;7.276;2022-09-13T17:14:26;1.70;;;1.60;;
19946;SDS011;10135;50.702;7.276;2022-09-13T17:18:51;2.67;;;1.70;;
19946;SDS011;10135;50.702;7.276;2022-09-13T17:20:52;1.65;;;1.60;;
19946;SDS011;10135;50.702;7.276;2022-09-13T17:22:53;2.67;;;1.40;;
19946;SDS011;10135;50.702;7.276;2022-09-13T17:24:54;2.08;;;1.80;;
19946;SDS011;10135;50.702;7.276;2022-09-13T17:26:55;2.13;;;1.70;;
19946;SDS011;10135;50.702;7.276;2022-09-13T17:28:57;3.72;;;1.65;;
19946;SDS011;10135;50.702;7.276;2022-09-13T17:30:58;2.55;;;1.80;;
19946;SDS011;10135;50.702;7.276;2022-09-13T17:32:58;4.93;;;1.90;;
19946;SDS011;10135;50.702;7.276;2022-09-13T17:34:59;2.50;;;1.70;;
19946;SDS011;10135;50.702;7.276;2022-09-13T17:37:00;2.42;;;1.83;;
19946;SDS011;10135;50.702;7.276;2022-09-13T17:39:02;3.03;;;1.80;;
19946;SDS011;10135;50.702;7.276;2022-09-13T17:41:06;1.67;;;1.58;;
19946;SDS011;10135;50.702;7.276;2022-09-13T17:43:10;2.30;;;1.60;;
19946;SDS011;10135;50.702;7.276;2022-09-13T17:45:12;1.60;;;1.50;;
19946;SDS011;10135;50.702;7.276;2022-09-13T17:47:13;1.88;;;1.75;;
19946;SDS011;10135;50.702;7.276;2022-09-13T17:49:14;2.00;;;1.75;;
19946;SDS011;10135;50.702;7.276;2022-09-13T17:51:15;5.45;;;3.42;;
19946;SDS011;10135;50.702;7.276;2022-09-13T17:53:18;3.75;;;2.80;;
19946;SDS011;10135;50.702;7.276;2022-09-13T17:55:19;2.65;;;2.35;;
19946;SDS011;10135;50.702;7.276;2022-09-13T17:57:19;3.40;;;3.20;;
19946;SDS011;10135;50.702;7.276;2022-09-13T17:59:20;2.92;;;2.65;;
19946;SDS011;10135;50.702;7.276;2022-09-13T18:01:21;2.75;;;2.25;;
19946;SDS011;10135;50.702;7.276;2022-09-13T18:03:22;2.35;;;2.00;;
19946;SDS011;10135;50.702;7.276;2022-09-13T18:05:23;2.50;;;2.10;;
19946;SDS011;10135;50.702;7.276;2022-09-13T18:07:23;2.58;;;2.38;;
19946;SDS011;10135;50.702;7.276;2022-09-13T18:09:24;3.53;;;2.90;;
19946;SDS011;10135;50.702;7.276;2022-09-13T18:11:25;2.85;;;2.65;;
19946;SDS011;10135;50.702;7.276;2022-09-13T18:13:26;2.55;;;2.42;;
19946;SDS011;10135;50.702;7.276;2022-09-13T18:15:27;2.75;;;2.35;;
19946;SDS011;10135;50.702;7.276;2022-09-13T18:17:27;4.38;;;2.22;;
19946;SDS011;10135;50.702;7.276;2022-09-13T18:19:28;2.92;;;2.10;;
19946;SDS011;10135;50.702;7.276;2022-09-13T18:21:31;3.25;;;1.95;;
19946;SDS011;10135;50.702;7.276;2022-09-13T18:23:32;3.00;;;1.92;;
19946;SDS011;10135;50.702;7.276;2022-09-13T18:25:34;2.60;;;2.40;;
19946;SDS011;10135;50.702;7.276;2022-09-13T18:27:34;2.17;;;1.90;;
19946;SDS011;10135;50.702;7.276;2022-09-13T18:29:35;2.80;;;2.60;;
19946;SDS011;10135;50.702;7.276;2022-09-13T18:31:36;2.47;;;2.38;;
19946;SDS011;10135;50.702;7.276;2022-09-13T18:33:39;3.60;;;2.20;;
19946;SDS011;10135;50.702;7.276;2022-09-13T18:35:40;4.05;;;2.22;;
19946;SDS011;10135;50.702;7.276;2022-09-13T18:37:41;2.10;;;2.00;;
19946;SDS011;10135;50.702;7.276;2022-09-13T18:39:42;2.00;;;1.90;;
19946;SDS011;10135;50.702;7.276;2022-09-13T18:41:42;2.45;;;2.20;;
19946;SDS011;10135;50.702;7.276;2022-09-13T18:43:46;2.20;;;2.10;;
19946;SDS011;10135;50.702;7.276;2022-09-13T18:45:56;2.13;;;2.00;;
19946;SDS011;10135;50.702;7.276;2022-09-13T18:47:59;3.08;;;2.00;;
19946;SDS011;10135;50.702;7.276;2022-09-13T18:50:00;2.65;;;2.22;;
19946;SDS011;10135;50.702;7.276;2022-09-13T18:52:01;2.40;;;2.10;;
19946;SDS011;10135;50.702;7.276;2022-09-13T18:54:02;2.17;;;1.90;;
19946;SDS011;10135;50.702;7.276;2022-09-13T18:56:05;6.93;;;6.43;;
19946;SDS011;10135;50.702;7.276;2022-09-13T18:58:10;4.93;;;4.10;;
19946;SDS011;10135;50.702;7.276;2022-09-13T19:00:11;4.00;;;3.60;;
19946;SDS011;10135;50.702;7.276;2022-09-13T19:02:11;3.15;;;2.95;;
19946;SDS011;10135;50.702;7.276;2022-09-13T19:04:13;3.28;;;2.92;;
19946;SDS011;10135;50.702;7.276;2022-09-13T19:08:27;2.75;;;2.55;;
19946;SDS011;10135;50.702;7.276;2022-09-13T19:10:28;2.50;;;2.30;;
19946;SDS011;10135;50.702;7.276;2022-09-13T19:12:31;2.47;;;2.25;;
19946;SDS011;10135;50.702;7.276;2022-09-13T19:14:31;2.90;;;2.35;;
19946;SDS011;10135;50.702;7.276;2022-09-13T19:16:32;3.03;;;2.60;;
19946;SDS011;10135;50.702;7.276;2022-09-13T19:18:35;2.78;;;2.58;;
19946;SDS011;10135;50.702;7.276;2022-09-13T19:20:38;3.00;;;2.80;;
19946;SDS011;10135;50.702;7.276;2022-09-13T19:22:38;2.85;;;2.63;;
19946;SDS011;10135;50.702;7.276;2022-09-13T19:24:39;2.75;;;2.53;;
19946;SDS011;10135;50.702;7.276;2022-09-13T19:26:40;3.35;;;2.45;;
19946;SDS011;10135;50.702;7.276;2022-09-13T19:28:52;2.80;;;2.65;;
19946;SDS011;10135;50.702;7.276;2022-09-13T19:31:08;4.53;;;2.40;;
19946;SDS011;10135;50.702;7.276;2022-09-13T19:33:10;2.60;;;2.40;;
19946;SDS011;10135;50.702;7.276;2022-09-13T19:35:11;2.40;;;2.25;;
19946;SDS011;10135;50.702;7.276;2022-09-13T19:37:12;3.47;;;2.72;;
19946;SDS011;10135;50.702;7.276;2022-09-13T19:39:13;1.95;;;1.85;;
19946;SDS011;10135;50.702;7.276;2022-09-13T19:41:14;2.65;;;2.30;;
19946;SDS011;10135;50.702;7.276;2022-09-13T19:43:19;2.28;;;2.10;;
19946;SDS011;10135;50.702;7.276;2022-09-13T19:45:20;4.20;;;2.40;;
19946;SDS011;10135;50.702;7.276;2022-09-13T19:47:22;3.28;;;2.33;;
19946;SDS011;10135;50.702;7.276;2022-09-13T19:49:23;2.40;;;2.20;;
19946;SDS011;10135;50.702;7.276;2022-09-13T19:51:28;2.20;;;2.10;;
19946;SDS011;10135;50.702;7.276;2022-09-13T19:53:34;2.35;;;2.20;;
19946;SDS011;10135;50.702;7.276;2022-09-13T19:55:41;2.63;;;2.42;;
19946;SDS011;10135;50.702;7.276;2022-09-13T19:57:45;4.03;;;2.50;;
19946;SDS011;10135;50.702;7.276;2022-09-13T19:59:46;2.10;;;2.00;;
19946;SDS011;10135;50.702;7.276;2022-09-13T20:01:47;1.95;;;1.85;;
19946;SDS011;10135;50.702;7.276;2022-09-13T20:03:55;1.95;;;1.88;;
19946;SDS011;10135;50.702;7.276;2022-09-13T20:06:04;2.13;;;2.03;;
19946;SDS011;10135;50.702;7.276;2022-09-13T20:08:08;3.53;;;1.98;;
19946;SDS011;10135;50.702;7.276;2022-09-13T20:10:09;2.97;;;2.28;;
19946;SDS011;10135;50.702;7.276;2022-09-13T20:12:09;3.13;;;2.22;;
19946;SDS011;10135;50.702;7.276;2022-09-13T20:14:12;2.85;;;2.05;;
19946;SDS011;10135;50.702;7.276;2022-09-13T20:16:18;3.20;;;2.15;;
19946;SDS011;10135;50.702;7.276;2022-09-13T20:18:22;4.55;;;1.92;;
19946;SDS011;10135;50.702;7.276;2022-09-13T20:20:24;2.75;;;2.00;;
19946;SDS011;10135;50.702;7.276;2022-09-13T20:22:24;2.90;;;2.30;;
19946;SDS011;10135;50.702;7.276;2022-09-13T20:24:25;6.07;;;2.50;;